WetterOnline ( https://www.wetteronline.at )

Wetter aktuell Schkeuditz

Aktuelles Wetter: Leipzig/Halle (136m)

6-stündlich | Neueste Meldungen
Ortszeit Temperatur Wetter
So, 15.09. 20:00 20.9° C leicht bewölkt
So, 15.09. 14:00 23.2° C leicht bewölkt
So, 15.09. 8:00 11.5° C leicht bewölkt
So, 15.09. 2:00 10.8° C leicht bewölkt
Sa, 14.09. 20:00 14.9° C leicht bewölkt
Sa, 14.09. 14:00 18.2° C leicht bewölkt
Sa, 14.09. 8:00 9.7° C fast wolkenlos
Sa, 14.09. 2:00 13.7° C bewölkt
Ortszeit Temperatur Wetter
So, 15.09. 23:50 19° C -
So, 15.09. 23:30 18.3° C wolkig
So, 15.09. 23:20 18.3° C wolkig
So, 15.09. 23:10 17.6° C leicht bewölkt
So, 15.09. 23:00 16.8° C leicht bewölkt
So, 15.09. 22:50 16.8° C leicht bewölkt
So, 15.09. 22:30 18.1° C wolkig
So, 15.09. 22:00 17.7° C leicht bewölkt
So, 15.09. 21:30 18.5° C wolkig
So, 15.09. 21:00 19.9° C leicht bewölkt
Ortszeit Relative Feuchte Sichtweite
So, 15.09. 20:00 33% 70 km
So, 15.09. 14:00 40% 55 km
So, 15.09. 8:00 82% 40 km
So, 15.09. 2:00 79% 45 km
Sa, 14.09. 20:00 58% 60 km
Sa, 14.09. 14:00 45% 55 km
Sa, 14.09. 8:00 80% 50 km
Sa, 14.09. 2:00 62% 60 km
Ortszeit Relative Feuchte Sichtweite
So, 15.09. 23:50 37% >10 km
So, 15.09. 23:30 38% 65 km
So, 15.09. 23:20 38% -
So, 15.09. 23:10 38% -
So, 15.09. 23:00 40% 65 km
So, 15.09. 22:50 40% -
So, 15.09. 22:30 37% >70 km
So, 15.09. 22:00 41% 65 km
So, 15.09. 21:30 38% 65 km
So, 15.09. 21:00 35% 65 km
Ortszeit Niederschlagsmenge Niederschlagsart
So, 15.09. 20:00 0.0 l/m2 in 12 Std. -
So, 15.09. 14:00 0.0 l/m2 in 6 Std. -
So, 15.09. 8:00 0.0 l/m2 in 12 Std. -
So, 15.09. 2:00 0.0 l/m2 in 6 Std. -
Sa, 14.09. 20:00 0.0 l/m2 in 12 Std. -
Sa, 14.09. 14:00 0.0 l/m2 in 6 Std. -
Sa, 14.09. 8:00 0.0 l/m2 in 12 Std. -
Sa, 14.09. 2:00 0.0 l/m2 in 6 Std. -
Ortszeit Niederschlagsmenge Niederschlagsart
So, 15.09. 23:50 keine Meldung -
So, 15.09. 23:30 0.0 l/m2 in 1 Std. -
So, 15.09. 23:20 keine Meldung -
So, 15.09. 23:10 keine Meldung -
So, 15.09. 23:00 0.0 l/m2 in 1 Std. -
So, 15.09. 22:50 keine Meldung -
So, 15.09. 22:30 0.0 l/m2 in 1 Std. -
So, 15.09. 22:00 0.0 l/m2 in 1 Std. -
So, 15.09. 21:30 0.0 l/m2 in 1 Std. -
So, 15.09. 21:00 0.0 l/m2 in 1 Std. -
Ortszeit Stärke Spitze Richtung
km/h Bft. km/h Grad Sektor
So, 15.09. 20:00 9 2 41 290° W
So, 15.09. 14:00 22 4 40 240° SW
So, 15.09. 8:00 17 3 24 210° SW
So, 15.09. 2:00 13 3 19 160° S
Sa, 14.09. 20:00 6 1 17 80° O
Sa, 14.09. 14:00 7 2 18 150° SO
Sa, 14.09. 8:00 9 2 19 350° N
Sa, 14.09. 2:00 9 2 20 340° N
Ortszeit Stärke Spitze Richtung
km/h Bft. km/h Grad Sektor
So, 15.09. 23:50 15 3 - 300° NW
So, 15.09. 23:30 7 2 18 300° NW
So, 15.09. 23:20 7 2 - 300° NW
So, 15.09. 23:10 11 2 - 290° W
So, 15.09. 23:00 11 2 19 290° W
So, 15.09. 22:50 11 2 - 290° W
So, 15.09. 22:30 7 2 14 310° NW
So, 15.09. 22:00 7 2 18 300° NW
So, 15.09. 21:30 7 2 19 290° W
So, 15.09. 21:00 11 2 17 300° NW
Ortszeit Untergrenze Bedeckung Gattung
total tief tief mittel hoch
So, 15.09. 20:00 3900 m 6/8 1/8 - Ac Ci
So, 15.09. 14:00 9000 m 7/8 0/8 - - Ci
So, 15.09. 8:00 3600 m 7/8 1/8 - Ac Ci
So, 15.09. 2:00 9000 m 2/8 0/8 - - Ci
Sa, 14.09. 20:00 9000 m 7/8 0/8 - - Ci
Sa, 14.09. 14:00 1230 m 5/8 3/8 Cu - Ci
Sa, 14.09. 8:00 1800 m 1/8 1/8 Sc - -
Sa, 14.09. 2:00 1500 m 7/8 7/8 Sc - -
Ortszeit Bedeckungsgrad in Achtel und Wolkenuntergrenze
So, 15.09. 23:50 keine Wolken(unter 1500 m)
So, 15.09. 23:30 7(10500m) 7(10500m)
So, 15.09. 23:20 7(10500m) 7(10500m)
So, 15.09. 23:10 5(10500m) 5(10500m)
So, 15.09. 23:00 1(2100m) 4(8100m) 4(10500m)
So, 15.09. 22:50 3(4500m) 3(8400m)
So, 15.09. 22:30 1(2100m) 7(9000m) 7(10500m)
So, 15.09. 22:00 6(9000m) 3(10500m) 4(10500m)
So, 15.09. 21:30 8(9000m) 8(10500m) 8(10500m)
So, 15.09. 21:00 6(9000m) 8(10500m)
Ortszeit Luftdruck NN (hPa) Tendenz (hPa in 3 Std.)
So, 15.09. 20:00 1019 - 0,3
So, 15.09. 14:00 1021 - 1,6
So, 15.09. 8:00 1024 - 1,3
So, 15.09. 2:00 1027 - 2,0
Sa, 14.09. 20:00 1030 - 0,9
Sa, 14.09. 14:00 1033 - 1,3
Sa, 14.09. 8:00 1035 + 0,6
Sa, 14.09. 2:00 1034 + 0,9
Ortszeit Luftdruck NN (hPa) Tendenz (hPa in 3 Std.)
So, 15.09. 23:50 1019 keine Meldung
So, 15.09. 23:30 1019 + 0,3
So, 15.09. 23:20 1019 keine Meldung
So, 15.09. 23:10 1019 keine Meldung
So, 15.09. 23:00 1020 + 0,7
So, 15.09. 22:50 1020 keine Meldung
So, 15.09. 22:30 1019 + 0,5
So, 15.09. 22:00 1019 + 0,6
So, 15.09. 21:30 1019 + 0,6
So, 15.09. 21:00 1019 + 0,4
Ortszeit Schneehöhe (cm)
So, 15.09. 20:00 0
So, 15.09. 14:00 0
So, 15.09. 8:00 0
So, 15.09. 2:00 0
Sa, 14.09. 20:00 0
Sa, 14.09. 14:00 0
Sa, 14.09. 8:00 0
Sa, 14.09. 2:00 0
Ortszeit Schneehöhe (cm)
So, 15.09. 23:50 -
So, 15.09. 23:30 -
So, 15.09. 23:20 -
So, 15.09. 23:10 -
So, 15.09. 23:00 -
So, 15.09. 22:50 -
So, 15.09. 22:30 -
So, 15.09. 22:00 -
So, 15.09. 21:30 -
So, 15.09. 21:00 -
Link zu dieser Seite / Seite empfehlen

Das Wetter in ...